Port Clements, Canada
Current Conditions -  °F | °C
As of 5:00 PM on Thursday 27 Nov 2014 (Local Time) from CZMT Reporting Station
Overcast Overcast  
Wind Chill: 37°   Ceiling: 1500
Heat Index: 41°   Visibility: 15mi
Dew Point: 25°   Wind: 6mph
Humidity: 53%   Direction: NA
Pressure: 29.68"   Gusts: 17mph
Location:  53.68°N, 132.17°W
Report Text: CZMT 280100Z VRB05G15KT 15SM FEW008 BKN015 OVC090 05/M04 A2968 RMK CF1SC6AC2 CF TR SLP050
Loading
Personal Weather Stations






























Interactive Weather Map New forecast layout! Learn more

10-Day Weather Forecast

Advertisements
Track Severe Weather on mobile